Time;durP1;ratioP1;P1;durP2;ratioP2;P2;SDS_P1;SDS_P2;PMS_P1;PMS_P2;Temp;Humidity;BMP_temperature;BMP_pressure;BME280_temperature;BME280_humidity;BME280_pressure;Samples;Min_cycle;Max_cycle;Signal;HPM_P1;HPM_P2
2022/11/03 00:02:23;;;;;;;9.35;6.07;;;;;;;;;;4979408;28;20141;-82
2022/11/03 00:04:49;;;;;;;12.38;5.90;;;;;;;;;;4980574;28;20038;-85
2022/11/03 00:07:21;;;;;;;12.50;6.72;;;;;;;;;;4981649;28;20538;-82
2022/11/03 00:09:48;;;;;;;11.25;5.85;;;;;;;;;;4980362;28;20430;-80
2022/11/03 00:12:14;;;;;;;11.98;6.30;;;;;;;;;;4979663;28;20113;-80
2022/11/03 00:14:40;;;;;;;11.73;6.80;;;;;;;;;;4972117;28;20431;-79
2022/11/03 00:17:06;;;;;;;10.63;6.55;;;;;;;;;;4974969;28;20069;-78
2022/11/03 00:19:32;;;;;;;14.00;7.85;;;;;;;;;;4981043;28;20037;-80
2022/11/03 00:21:59;;;;;;;12.02;6.57;;;;;;;;;;4978748;28;20102;-80
2022/11/03 00:24:25;;;;;;;11.88;6.90;;;;;;;;;;4979072;28;20065;-82
2022/11/03 00:26:51;;;;;;;11.20;6.38;;;;;;;;;;4978870;28;20034;-82
2022/11/03 00:29:17;;;;;;;11.20;6.55;;;;;;;;;;4980194;28;20097;-81
2022/11/03 00:31:44;;;;;;;10.88;6.47;;;;;;;;;;4980030;28;20093;-80
2022/11/03 00:34:10;;;;;;;12.52;7.18;;;;;;;;;;4979808;28;20467;-85
2022/11/03 00:36:43;;;;;;;10.68;7.05;;;;;;;;;;4988295;28;20026;-84
2022/11/03 00:39:10;;;;;;;11.98;6.97;;;;;;;;;;4974811;28;20027;-82
2022/11/03 00:41:36;;;;;;;11.50;6.15;;;;;;;;;;4971380;28;20037;-79
2022/11/03 00:44:02;;;;;;;10.63;7.05;;;;;;;;;;4975302;28;20031;-78
2022/11/03 00:46:29;;;;;;;13.38;7.38;;;;;;;;;;4976394;28;20440;-82
2022/11/03 00:48:55;;;;;;;12.13;6.85;;;;;;;;;;4978147;28;20118;-85
2022/11/03 00:51:23;;;;;;;11.02;7.70;;;;;;;;;;4977479;28;20034;-78
2022/11/03 00:53:53;;;;;;;14.90;7.30;;;;;;;;;;4974959;28;20498;-77
2022/11/03 00:56:23;;;;;;;11.35;6.68;;;;;;;;;;4975312;28;20041;-76
2022/11/03 00:58:50;;;;;;;10.90;6.68;;;;;;;;;;4974627;28;20517;-79
2022/11/03 01:01:17;;;;;;;11.32;6.85;;;;;;;;;;4977856;28;20031;-80
2022/11/03 01:06:48;;;;;;;10.48;5.88;;;;;;;;;;4978773;28;20283;-80
2022/11/03 01:06:50;;;;;;;11.70;6.93;;;;;;;;;;4958408;29;20035;-78
2022/11/03 01:09:19;;;;;;;10.82;6.82;;;;;;;;;;4971358;28;20436;-79
2022/11/03 01:12:04;;;;;;;15.25;6.95;;;;;;;;;;4978510;28;20074;-76
2022/11/03 01:14:41;;;;;;;11.60;6.63;;;;;;;;;;4975283;28;20027;-80
2022/11/03 01:17:11;;;;;;;9.73;6.75;;;;;;;;;;4975401;28;20065;-77
2022/11/03 01:19:37;;;;;;;7.55;5.28;;;;;;;;;;4974097;28;20026;-78
2022/11/03 01:22:03;;;;;;;10.68;5.93;;;;;;;;;;4975942;28;20411;-78
2022/11/03 01:24:29;;;;;;;13.23;6.47;;;;;;;;;;4983311;28;20495;-78
2022/11/03 01:26:55;;;;;;;10.45;6.53;;;;;;;;;;4992627;28;20034;-80
2022/11/03 01:29:21;;;;;;;10.80;6.90;;;;;;;;;;4993931;28;20030;-79
2022/11/03 01:31:48;;;;;;;10.45;6.47;;;;;;;;;;4994600;28;20038;-84
2022/11/03 01:34:18;;;;;;;11.30;6.72;;;;;;;;;;4991483;28;20038;-79
2022/11/03 01:36:45;;;;;;;13.57;6.63;;;;;;;;;;4993714;28;20050;-82
2022/11/03 01:39:12;;;;;;;12.35;7.00;;;;;;;;;;4990552;28;20027;-85
2022/11/03 01:41:38;;;;;;;9.70;5.82;;;;;;;;;;4981707;28;20031;-82
2022/11/03 01:44:04;;;;;;;12.00;7.03;;;;;;;;;;4965174;29;20027;-84
2022/11/03 01:46:30;;;;;;;11.20;5.85;;;;;;;;;;4972301;28;20078;-85
2022/11/03 01:49:09;;;;;;;10.80;6.25;;;;;;;;;;4984828;28;20030;-78
2022/11/03 01:51:36;;;;;;;10.00;6.95;;;;;;;;;;4979873;28;20109;-84
2022/11/03 01:54:04;;;;;;;9.90;6.38;;;;;;;;;;4982125;28;20031;-84
2022/11/03 01:56:32;;;;;;;12.77;7.55;;;;;;;;;;4979745;28;20054;-85
2022/11/03 01:58:58;;;;;;;10.60;6.28;;;;;;;;;;4978803;28;20483;-83
2022/11/03 02:01:24;;;;;;;11.27;6.00;;;;;;;;;;4979015;28;20037;-83
2022/11/03 02:03:56;;;;;;;10.15;6.15;;;;;;;;;;4979394;28;20031;-81
2022/11/03 02:06:25;;;;;;;10.90;7.40;;;;;;;;;;4979650;28;20027;-82
2022/11/03 02:08:53;;;;;;;11.30;6.20;;;;;;;;;;4972458;28;20022;-79
2022/11/03 02:14:04;;;;;;;11.30;6.75;;;;;;;;;;4978148;28;20073;-83
2022/11/03 02:16:31;;;;;;;10.85;6.93;;;;;;;;;;4978017;28;20038;-83
2022/11/03 02:18:58;;;;;;;12.00;5.97;;;;;;;;;;4976668;28;20510;-80
2022/11/03 02:21:29;;;;;;;11.02;6.55;;;;;;;;;;4972495;28;20077;-80
2022/11/03 02:24:02;;;;;;;13.00;7.03;;;;;;;;;;4976473;28;20049;-76
2022/11/03 02:26:29;;;;;;;11.27;6.40;;;;;;;;;;4973788;28;20019;-77
2022/11/03 02:28:55;;;;;;;11.40;6.50;;;;;;;;;;4973173;28;20105;-78
2022/11/03 02:31:37;;;;;;;10.73;6.55;;;;;;;;;;4974404;28;20031;-83
2022/11/03 02:34:06;;;;;;;14.15;6.57;;;;;;;;;;4975824;28;20039;-82
2022/11/03 02:36:39;;;;;;;11.43;5.93;;;;;;;;;;4975056;28;20468;-83
2022/11/03 02:39:15;;;;;;;9.90;6.50;;;;;;;;;;4974230;28;20030;-82
2022/11/03 02:41:42;;;;;;;14.10;6.68;;;;;;;;;;4969841;28;20038;-83
2022/11/03 02:44:13;;;;;;;11.00;6.38;;;;;;;;;;4975592;28;20042;-80
2022/11/03 02:46:41;;;;;;;12.30;7.00;;;;;;;;;;4981048;28;20027;-79
2022/11/03 02:49:07;;;;;;;10.70;6.88;;;;;;;;;;4980439;28;20102;-83
2022/11/03 02:51:33;;;;;;;11.70;6.65;;;;;;;;;;4975290;28;20041;-80
2022/11/03 02:54:26;;;;;;;9.90;6.97;;;;;;;;;;4973190;28;20023;-83
2022/11/03 02:56:54;;;;;;;11.93;7.18;;;;;;;;;;4978087;28;20047;-82
2022/11/03 02:59:24;;;;;;;13.48;7.20;;;;;;;;;;4978785;28;20389;-82
2022/11/03 03:01:55;;;;;;;13.27;7.95;;;;;;;;;;4975808;28;20041;-79
2022/11/03 03:04:34;;;;;;;12.48;7.93;;;;;;;;;;4972659;28;20062;-82
2022/11/03 03:07:01;;;;;;;14.43;7.85;;;;;;;;;;4978199;28;20042;-84
2022/11/03 03:09:30;;;;;;;13.05;7.60;;;;;;;;;;4978515;28;20035;-85
2022/11/03 03:11:58;;;;;;;10.15;6.60;;;;;;;;;;4977228;28;20023;-83
2022/11/03 03:14:27;;;;;;;13.25;7.38;;;;;;;;;;4977087;28;20027;-83
2022/11/03 03:16:58;;;;;;;11.00;6.65;;;;;;;;;;4978350;28;20034;-84
2022/11/03 03:19:30;;;;;;;13.98;7.22;;;;;;;;;;4973713;28;20057;-82
2022/11/03 03:21:57;;;;;;;9.95;6.70;;;;;;;;;;4972722;28;20047;-82
2022/11/03 03:24:42;;;;;;;12.00;6.28;;;;;;;;;;4975726;28;20035;-81
2022/11/03 03:27:09;;;;;;;10.50;6.25;;;;;;;;;;4975164;28;20038;-81
2022/11/03 03:29:42;;;;;;;10.80;5.53;;;;;;;;;;4973453;28;20099;-81
2022/11/03 03:32:09;;;;;;;10.13;6.88;;;;;;;;;;4957494;29;20080;-79
2022/11/03 03:34:37;;;;;;;10.38;6.22;;;;;;;;;;4971975;28;20023;-81
2022/11/03 03:37:04;;;;;;;11.32;7.40;;;;;;;;;;4969321;28;20558;-81
2022/11/03 03:39:33;;;;;;;10.38;6.72;;;;;;;;;;4958151;28;20035;-82
2022/11/03 03:42:01;;;;;;;11.70;6.60;;;;;;;;;;4957824;29;20032;-81
2022/11/03 03:44:28;;;;;;;12.23;7.07;;;;;;;;;;4963905;28;20402;-79
2022/11/03 03:47:02;;;;;;;10.55;6.57;;;;;;;;;;4967639;28;20031;-79
2022/11/03 03:49:28;;;;;;;11.13;6.78;;;;;;;;;;4957886;28;20031;-81
2022/11/03 03:51:54;;;;;;;13.52;6.93;;;;;;;;;;4970298;28;20049;-82
2022/11/03 03:54:20;;;;;;;11.05;7.05;;;;;;;;;;4968423;28;20412;-81
2022/11/03 03:56:53;;;;;;;11.68;7.22;;;;;;;;;;4957112;29;20035;-82
2022/11/03 03:59:19;;;;;;;13.70;7.43;;;;;;;;;;4959346;28;20035;-81
2022/11/03 04:01:44;;;;;;;11.95;7.68;;;;;;;;;;4973687;28;20031;-81
2022/11/03 04:04:11;;;;;;;12.73;6.93;;;;;;;;;;4969799;28;20511;-81
2022/11/03 04:06:37;;;;;;;12.10;6.60;;;;;;;;;;4957251;28;20058;-81
2022/11/03 04:09:03;;;;;;;10.93;6.68;;;;;;;;;;4975571;28;20030;-81
2022/11/03 04:22:30;;;;;;;13.65;7.72;;;;;;;;;;4969595;28;20123;-81
2022/11/03 04:24:57;;;;;;;13.75;7.28;;;;;;;;;;4974585;28;20038;-83
2022/11/03 04:27:23;;;;;;;12.68;7.25;;;;;;;;;;4975696;28;20035;-82
2022/11/03 04:29:49;;;;;;;11.93;7.63;;;;;;;;;;4976686;28;20125;-84
2022/11/03 04:32:16;;;;;;;12.25;7.35;;;;;;;;;;4969367;28;20046;-84
2022/11/03 04:34:42;;;;;;;10.40;6.47;;;;;;;;;;4973593;28;20059;-81
2022/11/03 04:37:15;;;;;;;12.77;7.30;;;;;;;;;;4977379;28;20066;-84
2022/11/03 04:39:41;;;;;;;;;;;;;;;;;;4975601;28;20491;-84
2022/11/03 04:42:25;;;;;;;12.50;6.45;;;;;;;;;;4973658;28;19914;-84
2022/11/03 04:44:51;;;;;;;9.98;6.40;;;;;;;;;;4975344;28;20031;-82
2022/11/03 04:47:17;;;;;;;10.50;6.18;;;;;;;;;;4976770;28;20027;-85
2022/11/03 04:49:44;;;;;;;10.90;6.65;;;;;;;;;;4973463;28;20057;-85
2022/11/03 04:52:14;;;;;;;12.63;7.32;;;;;;;;;;4977728;28;20487;-82
2022/11/03 04:54:40;;;;;;;13.77;6.60;;;;;;;;;;4976723;28;20034;-82
2022/11/03 04:57:13;;;;;;;10.50;6.20;;;;;;;;;;4975048;28;20030;-81
2022/11/03 04:59:39;;;;;;;;;;;;;;;;;;4979219;28;20019;-81
2022/11/03 05:02:09;;;;;;;11.88;7.07;;;;;;;;;;4978482;28;19916;-83
2022/11/03 05:04:35;;;;;;;13.90;7.65;;;;;;;;;;4979321;28;20070;-80
2022/11/03 05:07:01;;;;;;;12.38;7.57;;;;;;;;;;4978439;28;20031;-81
2022/11/03 05:09:28;;;;;;;15.27;8.50;;;;;;;;;;4978660;28;20398;-80
2022/11/03 05:11:54;;;;;;;12.48;8.60;;;;;;;;;;4975982;28;20031;-81
2022/11/03 05:14:29;;;;;;;13.85;9.07;;;;;;;;;;4978031;28;20092;-81
2022/11/03 05:16:55;;;;;;;13.18;7.90;;;;;;;;;;4978667;28;20033;-82
2022/11/03 05:19:36;;;;;;;15.57;8.40;;;;;;;;;;4977876;28;20022;-80
2022/11/03 05:22:03;;;;;;;12.95;8.05;;;;;;;;;;4978046;28;20058;-81
2022/11/03 05:24:29;;;;;;;13.45;8.40;;;;;;;;;;4979053;28;20038;-81
2022/11/03 05:26:57;;;;;;;15.32;8.48;;;;;;;;;;4979438;28;20022;-80
2022/11/03 05:29:32;;;;;;;10.20;6.80;;;;;;;;;;4975871;28;20019;-81
2022/11/03 05:44:36;;;;;;;13.05;9.32;;;;;;;;;;6218288;22;1382845;-84
2022/11/03 05:47:03;;;;;;;14.00;8.95;;;;;;;;;;6286987;22;20008;-85
2022/11/03 05:49:30;;;;;;;16.40;9.75;;;;;;;;;;6259651;22;20430;-87
2022/11/03 05:51:56;;;;;;;13.60;9.13;;;;;;;;;;6259174;22;20007;-87
2022/11/03 05:54:34;;;;;;;11.48;7.88;;;;;;;;;;6257864;22;19999;-87
2022/11/03 05:57:00;;;;;;;10.25;6.88;;;;;;;;;;6259526;22;20465;-84
2022/11/03 05:59:28;;;;;;;10.30;6.35;;;;;;;;;;6258353;22;20004;-85
2022/11/03 06:01:59;;;;;;;11.43;6.53;;;;;;;;;;6258641;22;20008;-85
2022/11/03 06:04:38;;;;;;;10.63;6.20;;;;;;;;;;6262992;22;20011;-84
2022/11/03 06:07:20;;;;;;;8.55;5.78;;;;;;;;;;6278988;22;20004;-84
2022/11/03 06:10:12;;;;;;;10.47;6.60;;;;;;;;;;6281697;22;20042;-84
2022/11/03 06:12:48;;;;;;;10.37;6.23;;;;;;;;;;6258924;22;20007;-87
2022/11/03 06:15:24;;;;;;;14.75;8.85;;;;;;;;;;6273898;22;20227;-85
2022/11/03 06:17:59;;;;;;;12.63;8.70;;;;;;;;;;6271607;22;20029;-85
2022/11/03 06:20:25;;;;;;;14.30;8.98;;;;;;;;;;6284121;22;20027;-86
2022/11/03 06:22:54;;;;;;;15.90;9.13;;;;;;;;;;6276903;22;20008;-86
2022/11/03 06:25:34;;;;;;;13.88;9.35;;;;;;;;;;6292710;22;20074;-86
2022/11/03 06:28:02;;;;;;;17.00;9.65;;;;;;;;;;6265482;22;19996;-86
2022/11/03 06:30:32;;;;;;;13.80;8.38;;;;;;;;;;6265774;22;20007;-86
2022/11/03 06:33:06;;;;;;;14.63;8.75;;;;;;;;;;6265633;22;20003;-86
2022/11/03 06:35:34;;;;;;;13.80;8.40;;;;;;;;;;6264595;22;20003;-86
2022/11/03 06:38:00;;;;;;;14.48;9.15;;;;;;;;;;6258719;22;20004;-86
2022/11/03 06:40:30;;;;;;;13.85;7.32;;;;;;;;;;6260241;22;20003;-86
2022/11/03 06:42:57;;;;;;;13.60;8.20;;;;;;;;;;6257190;23;20016;-86
2022/11/03 06:45:24;;;;;;;13.95;7.95;;;;;;;;;;6247439;23;20031;-86
2022/11/03 06:47:51;;;;;;;12.20;6.60;;;;;;;;;;6250415;23;20332;-86
2022/11/03 06:50:38;;;;;;;12.52;7.22;;;;;;;;;;6247301;23;20035;-86
2022/11/03 06:53:04;;;;;;;15.25;8.88;;;;;;;;;;6249196;22;20087;-86
2022/11/03 06:55:33;;;;;;;12.48;7.03;;;;;;;;;;6247474;23;20007;-86
2022/11/03 06:58:20;;;;;;;13.20;6.93;;;;;;;;;;6256173;23;20022;-86
2022/11/03 07:00:46;;;;;;;10.95;6.82;;;;;;;;;;6241684;23;20000;-86
2022/11/03 07:03:15;;;;;;;17.38;6.53;;;;;;;;;;6254349;23;20004;-87
2022/11/03 07:05:41;;;;;;;11.55;6.10;;;;;;;;;;6255212;23;20004;-87
2022/11/03 07:08:24;;;;;;;13.25;6.75;;;;;;;;;;6256114;23;20004;-87
2022/11/03 07:10:50;;;;;;;;;;;;;;;;;;6256496;23;20399;-87
2022/11/03 07:13:19;;;;;;;14.57;7.03;;;;;;;;;;6248083;23;19904;-86
2022/11/03 07:15:45;;;;;;;11.70;6.30;;;;;;;;;;6249188;23;20028;-86
2022/11/03 07:18:25;;;;;;;10.18;6.60;;;;;;;;;;6251908;23;19996;-87
2022/11/03 07:20:53;;;;;;;15.98;7.85;;;;;;;;;;6252140;23;20439;-87
2022/11/03 07:23:21;;;;;;;11.23;7.05;;;;;;;;;;6252520;23;20106;-87
2022/11/03 07:25:54;;;;;;;12.75;7.07;;;;;;;;;;6251542;23;20004;-86
2022/11/03 07:28:22;;;;;;;13.00;7.85;;;;;;;;;;6251577;23;20016;-87
2022/11/03 07:30:49;;;;;;;14.68;8.65;;;;;;;;;;6249854;23;20019;-86
2022/11/03 07:33:25;;;;;;;11.95;8.13;;;;;;;;;;6250063;23;20004;-86
2022/11/03 07:35:52;;;;;;;11.98;7.82;;;;;;;;;;6254479;22;20018;-86
2022/11/03 07:38:20;;;;;;;10.75;6.78;;;;;;;;;;6256208;23;20008;-87
2022/11/03 07:40:48;;;;;;;13.95;7.50;;;;;;;;;;6258950;23;20388;-86
2022/11/03 07:43:22;;;;;;;13.63;7.80;;;;;;;;;;6251138;23;20051;-86
2022/11/03 07:45:48;;;;;;;13.43;7.65;;;;;;;;;;6250929;23;20156;-86
2022/11/03 07:48:18;;;;;;;12.95;8.15;;;;;;;;;;6247489;23;20008;-86
2022/11/03 07:50:45;;;;;;;12.75;8.35;;;;;;;;;;6249505;22;20060;-86
2022/11/03 07:53:17;;;;;;;13.65;8.15;;;;;;;;;;6248383;23;20001;-86
2022/11/03 07:55:45;;;;;;;15.27;9.50;;;;;;;;;;6246061;23;20000;-86
2022/11/03 07:58:19;;;;;;;14.68;8.27;;;;;;;;;;6246393;23;20408;-86
2022/11/03 08:00:46;;;;;;;15.95;8.75;;;;;;;;;;6252207;23;19996;-86
2022/11/03 08:03:20;;;;;;;14.90;8.75;;;;;;;;;;6248606;23;20008;-86
2022/11/03 08:05:46;;;;;;;11.95;7.63;;;;;;;;;;6248447;23;20000;-86
2022/11/03 08:08:12;;;;;;;13.70;8.90;;;;;;;;;;6246113;23;20026;-86
2022/11/03 08:10:38;;;;;;;13.07;8.30;;;;;;;;;;6249028;23;20427;-86
2022/11/03 08:13:04;;;;;;;13.68;8.27;;;;;;;;;;6254774;23;20000;-86
2022/11/03 08:15:30;;;;;;;15.23;9.18;;;;;;;;;;6254341;23;20000;-86
2022/11/03 08:17:56;;;;;;;13.75;8.50;;;;;;;;;;6255153;23;20000;-86
2022/11/03 08:20:22;;;;;;;16.27;8.95;;;;;;;;;;6255435;23;20022;-86
2022/11/03 08:22:48;;;;;;;15.07;8.88;;;;;;;;;;6254735;23;20004;-86
2022/11/03 08:25:14;;;;;;;12.70;7.85;;;;;;;;;;6259873;23;20408;-84
2022/11/03 08:27:40;;;;;;;11.88;7.47;;;;;;;;;;6256177;23;20004;-84
2022/11/03 08:30:08;;;;;;;11.70;7.18;;;;;;;;;;6252740;23;20008;-85
2022/11/03 08:32:35;;;;;;;11.65;7.60;;;;;;;;;;6255379;23;20014;-84
2022/11/03 08:35:01;;;;;;;11.30;7.10;;;;;;;;;;6256504;23;19996;-85
2022/11/03 08:37:27;;;;;;;14.80;7.35;;;;;;;;;;6254078;23;20042;-84
2022/11/03 08:39:53;;;;;;;12.27;7.22;;;;;;;;;;6254760;23;20010;-85
2022/11/03 08:42:19;;;;;;;11.95;7.25;;;;;;;;;;6255134;23;20004;-84
2022/11/03 08:44:45;;;;;;;10.82;6.88;;;;;;;;;;6260194;22;20022;-85
2022/11/03 08:47:11;;;;;;;12.50;7.30;;;;;;;;;;6259869;22;20078;-86
2022/11/03 08:49:37;;;;;;;13.13;7.68;;;;;;;;;;6257368;22;20008;-84
2022/11/03 08:52:03;;;;;;;12.70;7.40;;;;;;;;;;6286379;22;20007;-85
2022/11/03 08:54:29;;;;;;;10.80;7.80;;;;;;;;;;6261537;22;20004;-84
2022/11/03 08:56:55;;;;;;;11.25;6.90;;;;;;;;;;6263411;22;20004;-84
2022/11/03 08:59:21;;;;;;;13.02;8.50;;;;;;;;;;6261305;22;20335;-83
2022/11/03 09:01:47;;;;;;;13.45;7.53;;;;;;;;;;6261134;22;20029;-84
2022/11/03 09:04:13;;;;;;;14.10;9.15;;;;;;;;;;6261518;22;19999;-84
2022/11/03 09:06:40;;;;;;;13.00;7.30;;;;;;;;;;6288133;22;20011;-85
2022/11/03 09:09:06;;;;;;;11.65;7.82;;;;;;;;;;6259845;22;20003;-85
2022/11/03 09:11:32;;;;;;;14.40;6.88;;;;;;;;;;6261641;22;20067;-85
2022/11/03 09:13:58;;;;;;;10.27;6.78;;;;;;;;;;6259782;22;20000;-85
2022/11/03 09:16:25;;;;;;;15.65;8.32;;;;;;;;;;6287349;22;20000;-85
2022/11/03 09:18:51;;;;;;;12.77;6.55;;;;;;;;;;6258635;22;20004;-83
2022/11/03 09:21:17;;;;;;;14.90;6.95;;;;;;;;;;6283877;22;20030;-83
2022/11/03 09:23:44;;;;;;;12.88;6.43;;;;;;;;;;6256879;22;20003;-85
2022/11/03 09:26:10;;;;;;;12.65;6.93;;;;;;;;;;6258048;22;20018;-83
2022/11/03 09:28:36;;;;;;;10.52;6.65;;;;;;;;;;6286539;22;20029;-85
2022/11/03 09:31:02;;;;;;;12.52;6.82;;;;;;;;;;6259482;22;20119;-85
2022/11/03 09:33:28;;;;;;;12.02;6.18;;;;;;;;;;6261503;22;20415;-85
2022/11/03 09:35:54;;;;;;;13.57;5.68;;;;;;;;;;6258891;22;20004;-83
2022/11/03 09:38:20;;;;;;;8.30;4.88;;;;;;;;;;6286749;22;20023;-85
2022/11/03 09:40:46;;;;;;;10.70;5.07;;;;;;;;;;6262616;22;20056;-82
2022/11/03 09:43:12;;;;;;;7.97;4.45;;;;;;;;;;6270717;22;20020;-84
2022/11/03 09:45:38;;;;;;;7.30;4.00;;;;;;;;;;6276315;22;20011;-83
2022/11/03 09:48:05;;;;;;;8.90;4.38;;;;;;;;;;6263107;22;20018;-83
2022/11/03 09:50:31;;;;;;;8.63;4.22;;;;;;;;;;6257222;22;20350;-84
2022/11/03 09:52:58;;;;;;;7.32;3.60;;;;;;;;;;6255814;22;20008;-83
2022/11/03 09:55:25;;;;;;;6.60;2.90;;;;;;;;;;6257433;22;20050;-81
2022/11/03 09:57:59;;;;;;;7.75;2.63;;;;;;;;;;6284689;22;19995;-85
2022/11/03 10:00:26;;;;;;;6.68;2.55;;;;;;;;;;6258952;22;20099;-85
2022/11/03 10:02:52;;;;;;;6.13;2.70;;;;;;;;;;6258721;22;20004;-83
2022/11/03 10:05:28;;;;;;;5.85;2.95;;;;;;;;;;6258665;22;20043;-84
2022/11/03 10:08:05;;;;;;;6.03;2.80;;;;;;;;;;6279831;22;20027;-86
2022/11/03 10:10:31;;;;;;;8.98;3.10;;;;;;;;;;6279490;22;20000;-85
2022/11/03 10:12:58;;;;;;;6.30;2.60;;;;;;;;;;6282303;22;20031;-84
2022/11/03 10:15:25;;;;;;;7.47;3.20;;;;;;;;;;6254256;22;19999;-85
2022/11/03 10:17:51;;;;;;;5.13;3.03;;;;;;;;;;6281522;22;19996;-84
2022/11/03 10:20:19;;;;;;;8.93;3.72;;;;;;;;;;6284940;22;20304;-84
2022/11/03 10:22:46;;;;;;;8.65;3.83;;;;;;;;;;6254802;22;20006;-85
2022/11/03 10:25:25;;;;;;;7.38;3.10;;;;;;;;;;6255356;22;20008;-83
2022/11/03 10:27:51;;;;;;;6.10;3.40;;;;;;;;;;6282772;22;20029;-84
2022/11/03 10:30:17;;;;;;;5.20;3.15;;;;;;;;;;6282376;22;20004;-85
2022/11/03 10:32:43;;;;;;;6.20;3.05;;;;;;;;;;6254827;22;20423;-85
2022/11/03 10:35:28;;;;;;;5.68;2.83;;;;;;;;;;6253112;22;20408;-85
2022/11/03 10:37:54;;;;;;;5.55;2.70;;;;;;;;;;6251106;22;20095;-85
2022/11/03 10:40:36;;;;;;;7.25;3.13;;;;;;;;;;6252025;22;20374;-86
2022/11/03 10:43:02;;;;;;;8.05;2.80;;;;;;;;;;6256836;22;20016;-85
2022/11/03 10:45:28;;;;;;;6.93;3.05;;;;;;;;;;6254087;22;20443;-85
2022/11/03 10:48:01;;;;;;;6.70;2.78;;;;;;;;;;6257885;22;20024;-86
2022/11/03 10:50:27;;;;;;;5.78;2.75;;;;;;;;;;6260718;22;20000;-85
2022/11/03 10:52:54;;;;;;;7.50;3.00;;;;;;;;;;6258314;22;20011;-86
2022/11/03 10:55:21;;;;;;;8.07;4.10;;;;;;;;;;6285554;22;20007;-84
2022/11/03 10:57:48;;;;;;;6.15;2.97;;;;;;;;;;6280577;22;19996;-84
2022/11/03 11:00:15;;;;;;;7.72;3.00;;;;;;;;;;6255060;22;20035;-85
2022/11/03 11:02:43;;;;;;;5.45;3.05;;;;;;;;;;6251374;22;20012;-85
2022/11/03 11:05:18;;;;;;;6.47;3.03;;;;;;;;;;6255677;22;20434;-85
2022/11/03 11:07:45;;;;;;;5.30;2.60;;;;;;;;;;6255712;22;20158;-85
2022/11/03 11:10:14;;;;;;;6.53;3.03;;;;;;;;;;6281613;22;20000;-86
2022/11/03 11:12:59;;;;;;;6.63;2.90;;;;;;;;;;6253158;22;20008;-86
2022/11/03 11:15:42;;;;;;;6.57;2.47;;;;;;;;;;6255512;22;19996;-85
2022/11/03 11:18:08;;;;;;;5.15;2.45;;;;;;;;;;6253695;22;20087;-87
2022/11/03 11:20:40;;;;;;;7.88;3.45;;;;;;;;;;6256533;22;20007;-85
2022/11/03 11:23:24;;;;;;;6.35;2.70;;;;;;;;;;6278726;22;20593;-86
2022/11/03 11:26:09;;;;;;;6.78;2.70;;;;;;;;;;6252806;22;20004;-86
2022/11/03 11:28:39;;;;;;;6.57;2.53;;;;;;;;;;6280737;22;20000;-86
2022/11/03 11:31:34;;;;;;;5.45;2.17;;;;;;;;;;6255216;22;20129;-85
2022/11/03 11:34:09;;;;;;;6.65;2.33;;;;;;;;;;6222890;22;20011;-85
2022/11/03 11:36:54;;;;;;;7.20;2.55;;;;;;;;;;6284217;22;20007;-85
2022/11/03 11:39:20;;;;;;;5.88;2.30;;;;;;;;;;6252657;22;20007;-87
2022/11/03 11:42:05;;;;;;;6.72;2.67;;;;;;;;;;6254670;22;20102;-85
2022/11/03 11:44:46;;;;;;;4.35;2.05;;;;;;;;;;6250673;22;20015;-87
2022/11/03 11:47:27;;;;;;;5.32;2.40;;;;;;;;;;6254711;22;20012;-86
2022/11/03 11:50:05;;;;;;;5.50;2.30;;;;;;;;;;6278764;22;20018;-86
2022/11/03 11:52:37;;;;;;;6.55;2.42;;;;;;;;;;6279925;22;20046;-86
2022/11/03 11:55:04;;;;;;;4.85;2.28;;;;;;;;;;6254225;22;20057;-84
2022/11/03 11:57:33;;;;;;;6.25;2.53;;;;;;;;;;6280866;22;20019;-85
2022/11/03 11:59:59;;;;;;;6.07;2.55;;;;;;;;;;6253307;22;20015;-86
2022/11/03 12:02:28;;;;;;;6.47;2.17;;;;;;;;;;6253569;22;19999;-86
2022/11/03 12:05:00;;;;;;;7.78;2.85;;;;;;;;;;6253893;22;20008;-86
2022/11/03 12:07:32;;;;;;;6.35;3.13;;;;;;;;;;6253878;22;20004;-85
2022/11/03 12:10:08;;;;;;;7.18;3.17;;;;;;;;;;6254139;22;20091;-85
2022/11/03 12:12:35;;;;;;;5.25;2.50;;;;;;;;;;6255332;22;20003;-85
2022/11/03 12:15:01;;;;;;;5.90;2.72;;;;;;;;;;6252993;22;20419;-85
2022/11/03 12:17:27;;;;;;;6.85;2.88;;;;;;;;;;6255454;22;20010;-86
2022/11/03 12:19:53;;;;;;;7.93;2.42;;;;;;;;;;6255787;22;20090;-86
2022/11/03 12:22:23;;;;;;;6.38;2.58;;;;;;;;;;6254211;22;20052;-85
2022/11/03 12:24:59;;;;;;;5.47;2.45;;;;;;;;;;6282738;22;20143;-85
2022/11/03 12:27:25;;;;;;;6.15;2.45;;;;;;;;;;6254083;22;20042;-85
2022/11/03 12:29:52;;;;;;;6.82;2.60;;;;;;;;;;6250911;22;20046;-86
2022/11/03 12:32:18;;;;;;;5.22;2.20;;;;;;;;;;6252259;22;20018;-86
2022/11/03 12:34:44;;;;;;;4.72;2.20;;;;;;;;;;6255554;22;20004;-85
2022/11/03 12:37:10;;;;;;;6.75;2.50;;;;;;;;;;6280382;22;20000;-86
2022/11/03 12:39:37;;;;;;;7.57;3.55;;;;;;;;;;6254541;22;20616;-85
2022/11/03 12:42:03;;;;;;;6.18;2.70;;;;;;;;;;6284112;22;20103;-86
2022/11/03 12:44:30;;;;;;;6.47;3.08;;;;;;;;;;6256459;22;20030;-84
2022/11/03 12:46:56;;;;;;;6.53;2.55;;;;;;;;;;6283505;22;19995;-83
2022/11/03 12:49:22;;;;;;;6.97;2.78;;;;;;;;;;6292118;22;20057;-86
2022/11/03 12:51:48;;;;;;;4.90;2.65;;;;;;;;;;6263784;22;20014;-86
2022/11/03 12:54:14;;;;;;;4.25;2.35;;;;;;;;;;6269399;22;19995;-85
2022/11/03 12:56:40;;;;;;;6.00;3.00;;;;;;;;;;6268386;22;20027;-84
2022/11/03 12:59:06;;;;;;;6.45;3.17;;;;;;;;;;6266269;22;20034;-85
2022/11/03 13:01:32;;;;;;;7.50;2.70;;;;;;;;;;6255844;22;20442;-86
2022/11/03 13:03:59;;;;;;;7.70;2.70;;;;;;;;;;6254022;22;20010;-87
2022/11/03 13:06:25;;;;;;;6.32;2.65;;;;;;;;;;6254392;22;20011;-87
2022/11/03 13:08:51;;;;;;;4.93;2.53;;;;;;;;;;6266921;22;20505;-86
2022/11/03 13:14:04;;;;;;;8.45;3.08;;;;;;;;;;6288953;22;20062;-86
2022/11/03 13:16:30;;;;;;;6.88;2.63;;;;;;;;;;6254877;22;20000;-85
2022/11/03 13:18:56;;;;;;;7.00;3.30;;;;;;;;;;6254609;22;20061;-86
2022/11/03 13:21:22;;;;;;;8.95;3.03;;;;;;;;;;6277350;22;19996;-86
2022/11/03 13:23:48;;;;;;;11.05;3.03;;;;;;;;;;6264364;22;20031;-86
2022/11/03 13:26:14;;;;;;;6.05;3.00;;;;;;;;;;6299580;22;20002;-85
2022/11/03 13:28:40;;;;;;;7.57;2.95;;;;;;;;;;6272626;22;20059;-85
2022/11/03 13:31:06;;;;;;;9.02;3.55;;;;;;;;;;6273815;22;19992;-87
2022/11/03 13:33:32;;;;;;;9.65;3.38;;;;;;;;;;6283873;22;20004;-85
2022/11/03 13:35:59;;;;;;;8.20;3.30;;;;;;;;;;6257219;22;20008;-87
2022/11/03 13:38:25;;;;;;;5.90;3.20;;;;;;;;;;6284668;22;19995;-86
2022/11/03 13:40:51;;;;;;;7.70;3.45;;;;;;;;;;6256894;22;20011;-86
2022/11/03 13:43:17;;;;;;;8.85;3.75;;;;;;;;;;6287673;22;20007;-85
2022/11/03 13:45:43;;;;;;;9.52;3.60;;;;;;;;;;6262499;22;20004;-86
2022/11/03 13:48:09;;;;;;;5.97;3.28;;;;;;;;;;6285266;22;20008;-85
2022/11/03 13:50:35;;;;;;;9.77;3.63;;;;;;;;;;6258957;22;20008;-85
2022/11/03 13:53:01;;;;;;;7.60;3.20;;;;;;;;;;6257858;22;20018;-85
2022/11/03 13:55:27;;;;;;;8.25;3.42;;;;;;;;;;6287617;22;20002;-86
2022/11/03 13:57:53;;;;;;;7.35;3.60;;;;;;;;;;6288271;22;20011;-86
2022/11/03 14:00:19;;;;;;;5.75;3.05;;;;;;;;;;6260458;22;19996;-85
2022/11/03 14:02:45;;;;;;;6.13;2.78;;;;;;;;;;6260834;22;20004;-85
2022/11/03 14:05:12;;;;;;;5.35;2.60;;;;;;;;;;6260211;22;20062;-84
2022/11/03 14:07:39;;;;;;;6.38;3.00;;;;;;;;;;6260007;22;20014;-85
2022/11/03 14:10:05;;;;;;;7.28;3.20;;;;;;;;;;6258060;22;20023;-85
2022/11/03 14:12:31;;;;;;;5.35;3.00;;;;;;;;;;6282995;22;20000;-85
2022/11/03 14:15:05;;;;;;;6.25;3.20;;;;;;;;;;6258956;22;20312;-84
2022/11/03 14:17:31;;;;;;;6.55;3.30;;;;;;;;;;6260045;22;20000;-85
2022/11/03 14:19:57;;;;;;;10.30;3.85;;;;;;;;;;6286390;22;20083;-85
2022/11/03 14:22:24;;;;;;;8.10;3.88;;;;;;;;;;6259693;22;20082;-85
2022/11/03 14:24:50;;;;;;;7.72;4.10;;;;;;;;;;6287979;22;20003;-84
2022/11/03 14:27:17;;;;;;;5.40;2.90;;;;;;;;;;6289109;22;20007;-85
2022/11/03 14:29:43;;;;;;;7.03;3.45;;;;;;;;;;6287978;22;20533;-85
2022/11/03 14:32:10;;;;;;;6.85;3.00;;;;;;;;;;6260722;22;20011;-86
2022/11/03 14:34:37;;;;;;;5.75;2.72;;;;;;;;;;6260232;22;20004;-85
2022/11/03 14:37:03;;;;;;;6.75;3.83;;;;;;;;;;6259728;22;20000;-86
2022/11/03 14:39:29;;;;;;;8.98;3.60;;;;;;;;;;6287202;22;19996;-84
2022/11/03 14:42:04;;;;;;;10.75;3.75;;;;;;;;;;6267509;22;20042;-85
2022/11/03 14:44:34;;;;;;;7.28;3.75;;;;;;;;;;6261712;22;20574;-85
2022/11/03 14:47:00;;;;;;;6.28;2.90;;;;;;;;;;6288953;22;20006;-85
2022/11/03 14:49:27;;;;;;;7.55;3.83;;;;;;;;;;6261290;22;20003;-85
2022/11/03 14:51:55;;;;;;;8.55;3.42;;;;;;;;;;6287579;22;20078;-86
2022/11/03 14:54:21;;;;;;;6.25;3.10;;;;;;;;;;6259257;22;20137;-85
2022/11/03 14:56:47;;;;;;;7.03;3.58;;;;;;;;;;6287827;22;20003;-85
2022/11/03 14:59:14;;;;;;;8.43;3.60;;;;;;;;;;6260914;22;20034;-86
2022/11/03 15:01:40;;;;;;;11.15;3.65;;;;;;;;;;6289246;22;19999;-87
2022/11/03 15:04:06;;;;;;;7.07;3.63;;;;;;;;;;6257790;22;20038;-84
2022/11/03 15:06:33;;;;;;;7.45;3.55;;;;;;;;;;6261419;22;20006;-85
2022/11/03 15:08:59;;;;;;;8.98;3.63;;;;;;;;;;6287172;22;20458;-82
2022/11/03 15:11:25;;;;;;;8.40;3.25;;;;;;;;;;6285131;22;20053;-85
2022/11/03 15:13:53;;;;;;;5.22;2.75;;;;;;;;;;6287092;22;20075;-85
2022/11/03 15:16:19;;;;;;;6.70;3.10;;;;;;;;;;6287644;22;19995;-86